CheckWX is a tool to help pilots better visualize weather data.  It is not intended as a substitute for an official pre-flight weather briefing.

15:19:31 UTC

ESMQ METAR
Kalmar Airport
Sweden
Current

30 mins ago

ESMQ 201450Z 05009KT CAVOK 19/16 Q1008
Observed
May-20 @ 14:50 UTC
Wind
  • 050° at 9 KTS
Visibility
10,000+ meters
Flight Rules
VFR
Cloud Levels
  • Clear skies
Temperature
19°C / 66°F
Dewpoint
16°C / 61°F
Humidity
83%
Altimeter
29.76" Hg
Pressure
1007.92 hPa
Previous

60 mins ago

ESMQ 201420Z 06009KT CAVOK 20/16 Q1008
Observed
May-20 @ 14:20 UTC
Wind
  • 060° at 9 KTS
Visibility
10,000+ meters
Flight Rules
VFR
Cloud Levels
  • Clear skies
Temperature
20°C / 68°F
Dewpoint
16°C / 61°F
Humidity
78%
Altimeter
29.76" Hg
Pressure
1007.92 hPa
Previous

1 hour ago

ESMQ 201350Z 06007KT 030V090 CAVOK 21/16 Q1008
Observed
May-20 @ 13:50 UTC
Wind
  • 060° at 7 KTS
Visibility
10,000+ meters
Flight Rules
VFR
Cloud Levels
  • Clear skies
Temperature
21°C / 70°F
Dewpoint
16°C / 61°F
Humidity
73%
Altimeter
29.76" Hg
Pressure
1007.92 hPa